createdAt,value
2018-06-12T19:42:16.078Z,52.06
2018-06-12T19:44:44.165Z,52.51
2018-06-12T19:51:32.470Z,50.21
2018-06-12T19:54:02.044Z,51.66
2018-06-12T19:56:31.136Z,52.48
2018-06-12T19:58:59.970Z,52.09
2018-06-12T20:01:28.398Z,52.81
2018-06-12T20:03:56.250Z,52.95
2018-06-12T20:06:25.569Z,52.22
2018-06-12T20:09:25.109Z,52.46
2018-06-12T20:11:53.206Z,53.56
2018-06-12T20:14:20.783Z,53.06
2018-06-12T20:16:51.659Z,52.50
2018-06-12T20:19:23.575Z,52.16
2018-06-12T20:21:58.515Z,52.67
2018-06-12T20:27:02.971Z,52.04
2018-06-12T20:29:32.361Z,52.14
2018-06-12T20:32:01.925Z,52.11
2018-06-12T20:34:30.075Z,51.62
2018-06-12T20:36:59.454Z,52.24
2018-06-12T20:39:29.929Z,52.00
2018-06-12T20:41:58.219Z,52.06
2018-06-12T20:44:28.682Z,52.05
2018-06-12T20:46:57.873Z,51.97
2018-06-12T20:49:27.634Z,52.03
2018-06-12T20:51:56.325Z,51.62
2018-06-12T20:54:27.452Z,51.93
2018-06-12T20:56:56.662Z,51.81
2018-06-12T20:59:25.236Z,51.83
2018-06-12T21:01:53.442Z,51.76
2018-06-12T21:04:22.322Z,51.62
2018-06-12T21:06:51.114Z,51.79
2018-06-12T21:09:20.191Z,51.15
2018-06-12T21:11:47.755Z,51.10
2018-06-12T21:14:16.246Z,51.23
2018-06-12T21:16:44.419Z,51.38
2018-06-12T21:19:14.291Z,51.24
2018-06-12T21:21:43.103Z,50.88
2018-06-12T21:24:15.538Z,51.46
2018-06-12T21:26:43.364Z,51.10
2018-06-12T21:29:15.154Z,51.49
2018-06-12T21:34:23.658Z,50.96
2018-06-12T21:36:56.143Z,50.96
2018-06-12T21:39:24.911Z,50.93
2018-06-12T21:41:52.759Z,51.00
2018-06-12T21:44:20.317Z,51.65
2018-06-12T21:46:47.902Z,51.37
2018-06-12T21:49:15.794Z,51.60
2018-06-12T21:51:44.290Z,51.32
2018-06-12T21:54:11.851Z,51.17
2018-06-12T21:56:40.684Z,51.21
2018-06-12T21:59:08.230Z,50.94
2018-06-12T22:01:39.387Z,51.39
2018-06-12T22:04:07.916Z,51.57
2018-06-12T22:06:35.538Z,50.87
2018-06-12T22:09:03.233Z,50.99
2018-06-12T22:11:31.919Z,51.07
2018-06-12T22:14:00.068Z,51.06
2018-06-12T22:16:27.664Z,50.93
2018-06-12T22:18:55.711Z,50.88
2018-06-12T22:21:28.086Z,50.94
2018-06-12T22:23:56.314Z,50.93
2018-06-12T22:26:24.929Z,51.42
2018-06-12T22:28:52.511Z,50.88
2018-06-12T22:31:20.083Z,51.39
2018-06-12T22:33:49.410Z,50.90
2018-06-12T22:36:18.153Z,51.41
2018-06-12T22:38:46.515Z,51.57
2018-06-12T22:41:14.493Z,51.40
2018-06-12T22:43:44.638Z,51.03
2018-06-12T22:46:12.446Z,51.28
2018-06-12T22:48:40.006Z,51.14
2018-06-12T22:51:07.549Z,51.50
2018-06-12T22:53:35.355Z,51.57
2018-06-12T22:56:03.361Z,51.04
2018-06-12T22:58:30.957Z,51.54
2018-06-12T23:00:58.547Z,50.97
2018-06-12T23:03:27.433Z,51.34
2018-06-12T23:05:55.821Z,51.65
2018-06-12T23:08:24.227Z,51.42
2018-06-12T23:10:52.441Z,51.28
2018-06-12T23:13:20.038Z,51.21
2018-06-12T23:15:47.629Z,51.08
2018-06-12T23:18:15.598Z,51.68
2018-06-12T23:20:43.156Z,50.73
2018-06-12T23:23:10.730Z,51.56
2018-06-12T23:25:42.523Z,51.14
2018-06-12T23:28:10.124Z,51.11
2018-06-12T23:30:39.365Z,51.00
2018-06-12T23:33:07.508Z,51.09
2018-06-12T23:35:35.106Z,51.11
2018-06-12T23:38:02.693Z,51.18
2018-06-12T23:40:31.531Z,51.06
2018-06-12T23:42:59.131Z,51.57
2018-06-12T23:45:26.666Z,51.73
2018-06-12T23:47:55.402Z,51.69
2018-06-12T23:50:25.456Z,51.70
2018-06-12T23:52:53.139Z,51.69
2018-06-12T23:55:20.706Z,51.13
2018-06-12T23:57:49.242Z,51.31
